PAX377 FIMP-FMEE
Flight info
| Callsign | PAX377 |
|---|---|
| Flight time | 0h 31m |
| Altitude | 24000 |
| Route | ESTEK DCT MP531 DCT GENOV DCT MP612 DCT MP224 DCT SOBAT SOBAT2R |
| Aircraft | A332/H-SDE3GHIJ2J3J5M1RVWXY/LB2D1 |
Departure
| Time | 2026-05-04 10:49 |
|---|---|
| Airport | Sir Seewoosagur Ramgoolam International Airport (FIMP) |
Arrival
| Time | 2026-05-04 11:20 |
|---|---|
| Airport | Roland Garros Airport (FMEE) |
| Time | Latitude | Longitude | Altitude | Speed | Heading |
|---|---|---|---|---|---|
| 2026-05-04 10:46 | -20.42468 | 57.67207 | 205 ft | 0 kts | 117° |
| 2026-05-04 10:49 | -20.44312 | 57.71001 | 1240 ft | 231 kts | 121° |
| 2026-05-04 10:49 | -20.45161 | 57.72507 | 1986 ft | 243 kts | 124° |
| 2026-05-04 10:50 | -20.46431 | 57.73741 | 2727 ft | 257 kts | 153° |
| 2026-05-04 10:51 | -20.53264 | 57.64942 | 9752 ft | 297 kts | 285° |
| 2026-05-04 10:52 | -20.52633 | 57.62838 | 10751 ft | 301 kts | 288° |
| 2026-05-04 10:52 | -20.51915 | 57.60733 | 11737 ft | 305 kts | 289° |
| 2026-05-04 10:52 | -20.51164 | 57.58606 | 12715 ft | 310 kts | 290° |
| 2026-05-04 10:54 | -20.47267 | 57.41658 | 17389 ft | 408 kts | 258° |
| 2026-05-04 10:54 | -20.47918 | 57.38625 | 17774 ft | 431 kts | 256° |
| 2026-05-04 10:56 | -20.52984 | 57.15434 | 22955 ft | 478 kts | 256° |
| 2026-05-04 10:56 | -20.53720 | 57.12006 | 22965 ft | 476 kts | 256° |
| 2026-05-04 10:56 | -20.54452 | 57.08590 | 22967 ft | 476 kts | 256° |
| 2026-05-04 10:57 | -20.55189 | 57.05152 | 22967 ft | 476 kts | 256° |
| 2026-05-04 10:57 | -20.55921 | 57.01729 | 22967 ft | 476 kts | 256° |
| 2026-05-04 10:57 | -20.56650 | 56.98319 | 22967 ft | 476 kts | 256° |
| 2026-05-04 10:57 | -20.57296 | 56.95298 | 22967 ft | 476 kts | 256° |
| 2026-05-04 10:58 | -20.58029 | 56.91859 | 22967 ft | 476 kts | 256° |
| 2026-05-04 10:58 | -20.58762 | 56.88423 | 22967 ft | 476 kts | 256° |
| 2026-05-04 10:58 | -20.59493 | 56.84987 | 22967 ft | 476 kts | 256° |
| 2026-05-04 10:58 | -20.60212 | 56.81606 | 22968 ft | 476 kts | 256° |
| 2026-05-04 10:59 | -20.60950 | 56.78137 | 22967 ft | 476 kts | 256° |
| 2026-05-04 10:59 | -20.61682 | 56.74689 | 22967 ft | 476 kts | 256° |
| 2026-05-04 10:59 | -20.62405 | 56.71277 | 22967 ft | 476 kts | 256° |
| 2026-05-04 10:59 | -20.63133 | 56.67839 | 22967 ft | 476 kts | 256° |
| 2026-05-04 11:00 | -20.63860 | 56.64405 | 22967 ft | 476 kts | 256° |
| 2026-05-04 11:01 | -20.68916 | 56.40411 | 23004 ft | 463 kts | 257° |
| 2026-05-04 11:02 | -20.69607 | 56.37117 | 22974 ft | 449 kts | 257° |
| 2026-05-04 11:02 | -20.70288 | 56.33873 | 22445 ft | 443 kts | 257° |
| 2026-05-04 11:05 | -20.71018 | 55.92796 | 15054 ft | 357 kts | 270° |
| 2026-05-04 11:06 | -20.70953 | 55.90193 | 14558 ft | 353 kts | 270° |
| 2026-05-04 11:06 | -20.70895 | 55.87909 | 14119 ft | 349 kts | 270° |
| 2026-05-04 11:06 | -20.70829 | 55.85340 | 13619 ft | 346 kts | 270° |
| 2026-05-04 11:06 | -20.70764 | 55.82786 | 13118 ft | 342 kts | 270° |
| 2026-05-04 11:08 | -20.70316 | 55.65667 | 9620 ft | 318 kts | 271° |
| 2026-05-04 11:10 | -20.69743 | 55.49946 | 6116 ft | 291 kts | 271° |
| 2026-05-04 11:12 | -20.69185 | 55.35343 | 3134 ft | 264 kts | 271° |
| 2026-05-04 11:12 | -20.69111 | 55.33456 | 3123 ft | 246 kts | 271° |
| 2026-05-04 11:12 | -20.69043 | 55.31717 | 3134 ft | 225 kts | 271° |
| 2026-05-04 11:12 | -20.69212 | 55.30162 | 3128 ft | 199 kts | 244° |
| 2026-05-04 11:13 | -20.70085 | 55.29134 | 3128 ft | 181 kts | 205° |
| 2026-05-04 11:13 | -20.71284 | 55.28795 | 3137 ft | 178 kts | 188° |
| 2026-05-04 11:13 | -20.72502 | 55.28611 | 3139 ft | 178 kts | 186° |
| 2026-05-04 11:13 | -20.73745 | 55.28444 | 3131 ft | 178 kts | 186° |
| 2026-05-04 11:14 | -20.74146 | 55.28392 | 3130 ft | 178 kts | 186° |
| 2026-05-04 11:16 | -20.81358 | 55.35482 | 3158 ft | 157 kts | 118° |
| 2026-05-04 11:16 | -20.81847 | 55.36514 | 2967 ft | 155 kts | 118° |
| 2026-05-04 11:16 | -20.82329 | 55.37534 | 2756 ft | 154 kts | 118° |
| 2026-05-04 11:17 | -20.82809 | 55.38549 | 2546 ft | 154 kts | 118° |
| 2026-05-04 11:17 | -20.83292 | 55.39572 | 2332 ft | 153 kts | 118° |
| 2026-05-04 11:19 | -20.86598 | 55.46571 | 865 ft | 139 kts | 118° |
| 2026-05-04 11:19 | -20.87024 | 55.47473 | 700 ft | 135 kts | 118° |
| 2026-05-04 11:19 | -20.87441 | 55.48357 | 521 ft | 134 kts | 118° |
| 2026-05-04 11:19 | -20.87865 | 55.49256 | 341 ft | 134 kts | 118° |
| 2026-05-04 11:20 | -20.88282 | 55.50140 | 163 ft | 134 kts | 118° |
| 2026-05-04 11:20 | -20.88693 | 55.51013 | 64 ft | 118 kts | 117° |
| 2026-05-04 11:20 | -20.88973 | 55.51601 | 72 ft | 61 kts | 117° |
| 2026-05-04 11:20 | -20.89069 | 55.51815 | 73 ft | 3 kts | 115° |
| 2026-05-04 11:22 | -20.89306 | 55.51926 | 87 ft | 30 kts | 298° |
| 2026-05-04 11:22 | -20.89207 | 55.51731 | 85 ft | 30 kts | 298° |
| 2026-05-04 11:23 | -20.89115 | 55.51539 | 83 ft | 29 kts | 295° |
| 2026-05-04 11:23 | -20.89031 | 55.51353 | 81 ft | 20 kts | 295° |
| 2026-05-04 11:24 | -20.89047 | 55.51252 | 84 ft | 4 kts | 208° |
| 2026-05-04 11:25 | -20.89062 | 55.51243 | 85 ft | 0 kts | 208° |
| 2026-05-04 11:25 | -20.89063 | 55.51243 | 85 ft | 1 kts | 208° |
| 2026-05-04 11:25 | -20.89067 | 55.51241 | 86 ft | 0 kts | 208° |
| 2026-05-04 11:26 | -20.89073 | 55.51237 | 86 ft | 0 kts | 208° |